Time;durP1;ratioP1;P1;durP2;ratioP2;P2;SDS_P1;SDS_P2;PMS_P1;PMS_P2;Temp;Humidity;BMP_temperature;BMP_pressure;BME280_temperature;BME280_humidity;BME280_pressure;Samples;Min_cycle;Max_cycle;Signal;HPM_P1;HPM_P2
2020/12/23 00:01:45;;;;;;;37.40;34.10;;;;;;;;;;5074035;28;20481;-83
2020/12/23 00:04:12;;;;;;;38.13;34.73;;;;;;;;;;5074288;28;20452;-83
2020/12/23 00:06:39;;;;;;;37.03;33.63;;;;;;;;;;5074377;28;20407;-82
2020/12/23 00:09:07;;;;;;;36.93;33.63;;;;;;;;;;5074225;28;20408;-83
2020/12/23 00:11:34;;;;;;;34.67;31.77;;;;;;;;;;5074508;28;20408;-83
2020/12/23 00:14:02;;;;;;;35.37;32.27;;;;;;;;;;5074085;28;20471;-82
2020/12/23 00:16:28;;;;;;;34.90;32.00;;;;;;;;;;5074486;28;20445;-83
2020/12/23 00:18:55;;;;;;;34.07;31.23;;;;;;;;;;5073940;28;20574;-82
2020/12/23 00:21:22;;;;;;;33.53;30.83;;;;;;;;;;5074032;28;20419;-83
2020/12/23 00:23:50;;;;;;;34.23;31.23;;;;;;;;;;5074432;28;20441;-83
2020/12/23 00:26:16;;;;;;;35.83;32.50;;;;;;;;;;5074608;28;20495;-83
2020/12/23 00:28:43;;;;;;;34.23;31.33;;;;;;;;;;5074167;28;20442;-83
2020/12/23 00:31:15;;;;;;;36.40;32.83;;;;;;;;;;5073911;28;20412;-83
2020/12/23 00:33:42;;;;;;;34.77;31.67;;;;;;;;;;5074070;28;20494;-83
2020/12/23 00:36:12;;;;;;;36.57;33.40;;;;;;;;;;5074348;28;20442;-83
2020/12/23 00:38:39;;;;;;;34.70;31.70;;;;;;;;;;5073981;28;20957;-83
2020/12/23 00:41:08;;;;;;;35.27;32.03;;;;;;;;;;5074410;28;20445;-83
2020/12/23 00:43:35;;;;;;;36.73;33.33;;;;;;;;;;5074266;28;20420;-83
2020/12/23 00:46:02;;;;;;;38.90;35.43;;;;;;;;;;5056615;28;20477;-82
2020/12/23 00:48:30;;;;;;;39.50;35.47;;;;;;;;;;5074060;28;20449;-83
2020/12/23 00:50:56;;;;;;;39.07;35.30;;;;;;;;;;5074056;28;20936;-83
2020/12/23 00:53:23;;;;;;;39.20;35.33;;;;;;;;;;5074309;28;20477;-83
2020/12/23 00:55:52;;;;;;;37.70;34.20;;;;;;;;;;5074327;28;20416;-83
2020/12/23 00:58:18;;;;;;;38.50;35.00;;;;;;;;;;5073899;28;20921;-83
2020/12/23 01:00:45;;;;;;;39.40;35.67;;;;;;;;;;5074142;28;20419;-83
2020/12/23 01:03:12;;;;;;;41.13;37.13;;;;;;;;;;5055561;28;20458;-83
2020/12/23 01:05:40;;;;;;;41.63;37.37;;;;;;;;;;5056582;28;20404;-83
2020/12/23 01:08:07;;;;;;;41.20;36.90;;;;;;;;;;5074102;28;20414;-82
2020/12/23 01:10:34;;;;;;;38.73;34.93;;;;;;;;;;5074000;28;20433;-83
2020/12/23 01:13:01;;;;;;;39.03;35.13;;;;;;;;;;5056814;28;20465;-83
2020/12/23 01:15:28;;;;;;;39.07;35.07;;;;;;;;;;5060129;28;20441;-83
2020/12/23 01:17:55;;;;;;;39.10;35.30;;;;;;;;;;5059874;28;20492;-83
2020/12/23 01:20:22;;;;;;;40.97;36.87;;;;;;;;;;5059581;28;20427;-83
2020/12/23 01:22:50;;;;;;;40.37;35.33;;;;;;;;;;5059943;28;20455;-83
2020/12/23 01:25:16;;;;;;;41.83;37.30;;;;;;;;;;5077643;28;20411;-82
2020/12/23 01:27:43;;;;;;;39.80;36.10;;;;;;;;;;5077557;28;20449;-83
2020/12/23 01:30:10;;;;;;;38.60;34.90;;;;;;;;;;5077740;28;20437;-83
2020/12/23 01:32:37;;;;;;;38.63;34.53;;;;;;;;;;5077356;28;20489;-83
2020/12/23 01:35:04;;;;;;;38.93;35.13;;;;;;;;;;5077089;28;20509;-83
2020/12/23 01:37:31;;;;;;;38.87;35.27;;;;;;;;;;5059664;28;20440;-83
2020/12/23 01:39:59;;;;;;;38.47;34.53;;;;;;;;;;5059637;28;20440;-83
2020/12/23 01:42:26;;;;;;;40.60;35.20;;;;;;;;;;5077245;28;20469;-83
2020/12/23 01:44:53;;;;;;;38.80;34.80;;;;;;;;;;5076966;28;20951;-83
2020/12/23 01:47:21;;;;;;;37.43;33.67;;;;;;;;;;5077295;28;20436;-83
2020/12/23 01:49:49;;;;;;;37.67;34.37;;;;;;;;;;5077192;28;20434;-83
2020/12/23 01:52:16;;;;;;;38.10;34.20;;;;;;;;;;5076972;28;20485;-83
2020/12/23 01:54:43;;;;;;;36.30;33.03;;;;;;;;;;5059525;28;20956;-83
2020/12/23 01:57:11;;;;;;;37.97;34.27;;;;;;;;;;5077125;28;20903;-83
2020/12/23 01:59:38;;;;;;;38.10;34.60;;;;;;;;;;5076612;28;20908;-82
2020/12/23 02:02:16;;;;;;;39.67;35.70;;;;;;;;;;5076599;28;20966;-83
2020/12/23 02:04:43;;;;;;;37.83;34.53;;;;;;;;;;5076449;28;20458;-82
2020/12/23 02:07:10;;;;;;;37.27;33.77;;;;;;;;;;5076555;28;20802;-83
2020/12/23 02:09:37;;;;;;;39.90;35.70;;;;;;;;;;5076847;28;20408;-83
2020/12/23 02:12:04;;;;;;;37.50;33.70;;;;;;;;;;5076533;28;20424;-83
2020/12/23 02:14:32;;;;;;;39.47;35.57;;;;;;;;;;5076283;28;20845;-83
2020/12/23 02:16:59;;;;;;;37.97;34.47;;;;;;;;;;5076635;28;20766;-83
2020/12/23 02:19:26;;;;;;;40.80;36.70;;;;;;;;;;5058736;28;20941;-83
2020/12/23 02:21:54;;;;;;;37.90;34.17;;;;;;;;;;5058705;28;20845;-83
2020/12/23 02:24:22;;;;;;;36.37;32.67;;;;;;;;;;5076523;28;20412;-83
2020/12/23 02:26:49;;;;;;;39.40;35.43;;;;;;;;;;5075825;28;20438;-83
2020/12/23 02:29:16;;;;;;;36.63;33.00;;;;;;;;;;5076625;28;20441;-83
2020/12/23 02:31:43;;;;;;;39.00;35.10;;;;;;;;;;5076187;28;20408;-83
2020/12/23 02:34:10;;;;;;;37.93;33.87;;;;;;;;;;5075444;28;20471;-83
2020/12/23 02:36:36;;;;;;;40.40;36.23;;;;;;;;;;5076462;28;20416;-83
2020/12/23 02:39:04;;;;;;;41.40;34.70;;;;;;;;;;5076336;28;20746;-83
2020/12/23 02:41:31;;;;;;;39.00;34.93;;;;;;;;;;5076457;28;20409;-83
2020/12/23 02:43:59;;;;;;;41.93;37.40;;;;;;;;;;5076243;28;20893;-83
2020/12/23 02:46:26;;;;;;;38.63;34.73;;;;;;;;;;5076000;28;20923;-82
2020/12/23 02:48:53;;;;;;;38.73;35.20;;;;;;;;;;5076048;28;20411;-82
2020/12/23 02:51:20;;;;;;;40.23;36.10;;;;;;;;;;5075875;28;20415;-83
2020/12/23 02:53:47;;;;;;;41.77;36.97;;;;;;;;;;5075538;28;20483;-83
2020/12/23 02:56:14;;;;;;;42.80;37.10;;;;;;;;;;5075734;28;20834;-82
2020/12/23 02:58:41;;;;;;;45.97;38.67;;;;;;;;;;5075353;28;20420;-82
2020/12/23 03:01:09;;;;;;;41.70;37.27;;;;;;;;;;5075508;28;20497;-83
2020/12/23 03:03:36;;;;;;;41.70;35.93;;;;;;;;;;5075132;28;20877;-82
2020/12/23 03:06:03;;;;;;;40.63;36.47;;;;;;;;;;5075162;28;20479;-83
2020/12/23 03:08:30;;;;;;;39.63;35.50;;;;;;;;;;5058263;28;20441;-82
2020/12/23 03:10:56;;;;;;;37.97;34.00;;;;;;;;;;5075043;28;20459;-83
2020/12/23 03:13:23;;;;;;;40.67;36.47;;;;;;;;;;5075516;28;20470;-83
2020/12/23 03:15:51;;;;;;;38.90;34.90;;;;;;;;;;5075585;28;20444;-82
2020/12/23 03:18:18;;;;;;;39.10;35.20;;;;;;;;;;5075354;28;20798;-83
2020/12/23 03:20:45;;;;;;;41.17;37.17;;;;;;;;;;5075579;28;20922;-83
2020/12/23 03:23:12;;;;;;;39.20;35.37;;;;;;;;;;5075497;28;20434;-82
2020/12/23 03:25:39;;;;;;;40.67;36.23;;;;;;;;;;5075338;28;20442;-82
2020/12/23 03:28:05;;;;;;;39.53;35.47;;;;;;;;;;5075371;28;20433;-82
2020/12/23 03:30:32;;;;;;;40.43;36.43;;;;;;;;;;5057662;28;20973;-81
2020/12/23 03:33:00;;;;;;;40.40;34.57;;;;;;;;;;5074767;28;20981;-82
2020/12/23 03:35:27;;;;;;;38.23;34.43;;;;;;;;;;5075371;28;20434;-82
2020/12/23 03:37:54;;;;;;;38.70;34.60;;;;;;;;;;5074076;28;20449;-83
2020/12/23 03:40:21;;;;;;;37.63;33.63;;;;;;;;;;5075034;28;20413;-83
2020/12/23 03:42:48;;;;;;;38.77;34.57;;;;;;;;;;5057188;28;20930;-83
2020/12/23 03:45:15;;;;;;;37.13;33.53;;;;;;;;;;5074794;28;20416;-82
2020/12/23 03:47:42;;;;;;;37.57;33.67;;;;;;;;;;5057619;28;20416;-82
2020/12/23 03:50:12;;;;;;;38.90;34.80;;;;;;;;;;5074905;28;20449;-82
2020/12/23 03:52:39;;;;;;;36.03;32.67;;;;;;;;;;5057155;28;20456;-82
2020/12/23 03:55:06;;;;;;;35.80;32.30;;;;;;;;;;5074898;28;20420;-82
2020/12/23 03:57:33;;;;;;;35.87;32.57;;;;;;;;;;5074848;28;20444;-82
2020/12/23 04:00:00;;;;;;;35.50;31.80;;;;;;;;;;5074638;28;20420;-82
2020/12/23 04:02:27;;;;;;;34.30;31.17;;;;;;;;;;5074537;28;20473;-82
2020/12/23 04:04:54;;;;;;;35.23;31.90;;;;;;;;;;5056560;28;20962;-82
2020/12/23 04:07:22;;;;;;;35.43;32.03;;;;;;;;;;5074301;28;20890;-82
2020/12/23 04:09:49;;;;;;;35.47;32.27;;;;;;;;;;5074258;28;20513;-82
2020/12/23 04:12:16;;;;;;;33.90;30.50;;;;;;;;;;5074637;28;20415;-82
2020/12/23 04:14:43;;;;;;;35.47;31.93;;;;;;;;;;5074611;28;20416;-82
2020/12/23 04:17:09;;;;;;;34.17;30.77;;;;;;;;;;5074668;28;20495;-83
2020/12/23 04:19:36;;;;;;;35.40;31.90;;;;;;;;;;5074215;28;20907;-81
2020/12/23 04:22:03;;;;;;;35.20;31.60;;;;;;;;;;5074462;28;20441;-83
2020/12/23 04:24:31;;;;;;;33.87;30.80;;;;;;;;;;5074390;28;20912;-83
2020/12/23 04:26:59;;;;;;;34.10;30.97;;;;;;;;;;5056920;28;20424;-83
2020/12/23 04:29:25;;;;;;;33.13;30.20;;;;;;;;;;5057034;28;20871;-82
2020/12/23 04:31:52;;;;;;;32.13;29.47;;;;;;;;;;5073787;28;20432;-82
2020/12/23 04:34:19;;;;;;;32.90;29.80;;;;;;;;;;5074498;28;20489;-82
2020/12/23 04:36:46;;;;;;;30.97;28.20;;;;;;;;;;5073960;28;20461;-83
2020/12/23 04:39:13;;;;;;;31.90;29.03;;;;;;;;;;5074102;28;20427;-83
2020/12/23 04:41:41;;;;;;;31.30;28.63;;;;;;;;;;5073981;28;20415;-82
2020/12/23 04:44:08;;;;;;;31.20;28.40;;;;;;;;;;5074309;28;20415;-82
2020/12/23 04:46:36;;;;;;;31.53;28.90;;;;;;;;;;5074608;28;20448;-82
2020/12/23 04:49:04;;;;;;;31.63;28.93;;;;;;;;;;5076435;28;20442;-82
2020/12/23 04:51:32;;;;;;;31.27;28.50;;;;;;;;;;5077971;28;20437;-82
2020/12/23 04:53:59;;;;;;;30.93;28.03;;;;;;;;;;5077938;28;20602;-82
2020/12/23 04:56:27;;;;;;;30.93;28.33;;;;;;;;;;5078293;28;20416;-83
2020/12/23 04:58:55;;;;;;;33.03;30.03;;;;;;;;;;5078108;28;20441;-82
2020/12/23 05:01:23;;;;;;;30.13;27.60;;;;;;;;;;5077649;28;20948;-81
2020/12/23 05:03:50;;;;;;;30.90;28.00;;;;;;;;;;5077711;28;20963;-80
2020/12/23 05:06:17;;;;;;;31.90;29.00;;;;;;;;;;5078034;28;20422;-82
2020/12/23 05:08:44;;;;;;;30.97;28.23;;;;;;;;;;5078731;28;20770;-83
2020/12/23 05:11:11;;;;;;;29.77;26.90;;;;;;;;;;5060030;28;20429;-83
2020/12/23 05:13:39;;;;;;;30.80;28.00;;;;;;;;;;5077889;28;20510;-83
2020/12/23 05:16:07;;;;;;;30.00;27.47;;;;;;;;;;5077567;28;20925;-82
2020/12/23 05:18:35;;;;;;;30.40;27.80;;;;;;;;;;5077514;28;20437;-83
2020/12/23 05:21:02;;;;;;;32.17;29.37;;;;;;;;;;5077407;28;20416;-82
2020/12/23 05:23:31;;;;;;;31.27;28.50;;;;;;;;;;5077676;28;20420;-83
2020/12/23 05:26:04;;;;;;;30.03;27.43;;;;;;;;;;5077254;28;20850;-83
2020/12/23 05:28:31;;;;;;;30.67;27.63;;;;;;;;;;5077648;28;20404;-83
2020/12/23 05:30:58;;;;;;;32.27;29.47;;;;;;;;;;5077333;28;20447;-83
2020/12/23 05:33:25;;;;;;;32.53;29.60;;;;;;;;;;5077108;28;20473;-83
2020/12/23 05:35:55;;;;;;;32.50;29.40;;;;;;;;;;5077799;28;20732;-82
2020/12/23 05:38:22;;;;;;;29.97;27.40;;;;;;;;;;5077488;28;20427;-83
2020/12/23 05:40:49;;;;;;;31.47;28.57;;;;;;;;;;5077347;28;20431;-83
2020/12/23 05:43:16;;;;;;;30.30;27.87;;;;;;;;;;5076963;28;20412;-83
2020/12/23 05:45:43;;;;;;;32.17;29.13;;;;;;;;;;5076928;28;20408;-82
2020/12/23 05:48:12;;;;;;;30.63;27.87;;;;;;;;;;5077368;28;20445;-83
2020/12/23 05:50:40;;;;;;;31.43;28.73;;;;;;;;;;5077396;28;20437;-83
2020/12/23 05:53:11;;;;;;;31.37;28.57;;;;;;;;;;5077067;28;20474;-83
2020/12/23 05:55:43;;;;;;;31.57;28.70;;;;;;;;;;5077172;28;20458;-83
2020/12/23 05:58:10;;;;;;;32.23;29.27;;;;;;;;;;5077164;28;20448;-82
2020/12/23 06:00:38;;;;;;;31.50;28.80;;;;;;;;;;5075559;28;20445;-83
2020/12/23 06:03:10;;;;;;;30.67;27.67;;;;;;;;;;5076334;28;20438;-83
2020/12/23 06:05:44;;;;;;;35.53;28.97;;;;;;;;;;5076827;28;20403;-83
2020/12/23 06:08:12;;;;;;;32.20;28.80;;;;;;;;;;5076743;28;20479;-83
2020/12/23 06:10:41;;;;;;;33.20;29.67;;;;;;;;;;5076598;28;20441;-83
2020/12/23 06:13:11;;;;;;;33.07;29.70;;;;;;;;;;5076657;28;20492;-83
2020/12/23 06:15:40;;;;;;;34.33;30.77;;;;;;;;;;5059803;28;20452;-83
2020/12/23 06:18:11;;;;;;;34.97;31.40;;;;;;;;;;5076462;28;20442;-83
2020/12/23 06:20:40;;;;;;;34.77;31.30;;;;;;;;;;5076652;28;20405;-84
2020/12/23 06:23:07;;;;;;;35.23;31.40;;;;;;;;;;5075938;28;20441;-83
2020/12/23 06:25:40;;;;;;;33.70;30.40;;;;;;;;;;5076576;28;20478;-83
2020/12/23 06:28:07;;;;;;;36.13;31.07;;;;;;;;;;5076611;28;20746;-84
2020/12/23 06:30:34;;;;;;;63.53;38.73;;;;;;;;;;5076430;28;20878;-83
2020/12/23 06:33:01;;;;;;;59.63;42.30;;;;;;;;;;5076023;28;20453;-83
2020/12/23 06:35:28;;;;;;;54.60;41.90;;;;;;;;;;5076774;28;20415;-83
2020/12/23 06:37:55;;;;;;;51.70;36.80;;;;;;;;;;5076200;28;20412;-83
2020/12/23 06:40:22;;;;;;;40.90;34.87;;;;;;;;;;5076176;28;20462;-83
2020/12/23 06:42:51;;;;;;;40.53;34.17;;;;;;;;;;5075930;28;20474;-83
2020/12/23 06:45:20;;;;;;;38.57;32.27;;;;;;;;;;5076265;28;20833;-83
2020/12/23 06:47:47;;;;;;;37.50;33.47;;;;;;;;;;5076268;28;20468;-82
2020/12/23 06:50:15;;;;;;;42.13;34.37;;;;;;;;;;5075466;28;20477;-83
2020/12/23 06:52:45;;;;;;;45.07;33.30;;;;;;;;;;5076002;28;20474;-82
2020/12/23 06:55:13;;;;;;;42.23;32.77;;;;;;;;;;5058546;28;20431;-82
2020/12/23 06:57:58;;;;;;;38.20;34.10;;;;;;;;;;5076975;28;20733;-83
2020/12/23 07:00:42;;;;;;;41.73;33.70;;;;;;;;;;5076062;28;20776;-84
2020/12/23 07:03:09;;;;;;;46.43;33.87;;;;;;;;;;5075252;28;20448;-83
2020/12/23 07:05:54;;;;;;;39.00;33.53;;;;;;;;;;5075919;28;20423;-83
2020/12/23 07:08:21;;;;;;;51.10;34.93;;;;;;;;;;5075642;28;20411;-83
2020/12/23 07:10:52;;;;;;;57.00;37.63;;;;;;;;;;5075585;28;20499;-83
2020/12/23 07:13:20;;;;;;;57.97;37.20;;;;;;;;;;5075267;28;20480;-84
2020/12/23 07:15:54;;;;;;;55.47;36.60;;;;;;;;;;5075270;28;20437;-83
2020/12/23 07:18:24;;;;;;;56.30;38.43;;;;;;;;;;5075731;28;20434;-83
2020/12/23 07:20:53;;;;;;;44.70;36.47;;;;;;;;;;5075391;28;20412;-83
2020/12/23 07:23:20;;;;;;;53.00;37.30;;;;;;;;;;5075215;28;20437;-83
2020/12/23 07:25:48;;;;;;;48.43;37.63;;;;;;;;;;5075623;28;20446;-84
2020/12/23 07:28:17;;;;;;;41.03;34.87;;;;;;;;;;5075229;28;20416;-84
2020/12/23 07:30:44;;;;;;;43.60;36.17;;;;;;;;;;5075108;28;20910;-84
2020/12/23 07:33:13;;;;;;;54.60;37.70;;;;;;;;;;5075031;28;20504;-83
2020/12/23 07:35:40;;;;;;;49.17;34.70;;;;;;;;;;5074823;28;20421;-84
2020/12/23 07:38:08;;;;;;;51.00;37.53;;;;;;;;;;5075305;28;20902;-83
2020/12/23 07:40:36;;;;;;;44.70;35.33;;;;;;;;;;5075107;28;20447;-83
2020/12/23 07:43:03;;;;;;;52.13;37.00;;;;;;;;;;5075165;28;20417;-83
2020/12/23 07:45:31;;;;;;;44.50;35.60;;;;;;;;;;5057268;28;20442;-83
2020/12/23 07:47:59;;;;;;;46.07;35.83;;;;;;;;;;5074794;28;20949;-83
2020/12/23 07:50:27;;;;;;;46.73;36.70;;;;;;;;;;5074888;28;20434;-80
2020/12/23 07:52:54;;;;;;;53.67;37.33;;;;;;;;;;5074593;28;20464;-84
2020/12/23 07:55:22;;;;;;;48.63;36.33;;;;;;;;;;5056862;28;20445;-84
2020/12/23 07:57:49;;;;;;;46.70;35.87;;;;;;;;;;5057779;28;20435;-83
2020/12/23 08:00:17;;;;;;;45.27;36.53;;;;;;;;;;5075010;28;20479;-83
2020/12/23 08:02:43;;;;;;;56.13;36.53;;;;;;;;;;5057206;28;20419;-84
2020/12/23 08:05:12;;;;;;;45.00;35.93;;;;;;;;;;5074482;28;20488;-88
2020/12/23 08:07:43;;;;;;;52.23;36.50;;;;;;;;;;5074475;28;20427;-88
2020/12/23 08:10:11;;;;;;;43.90;37.10;;;;;;;;;;5041219;28;20471;-84
2020/12/23 08:12:37;;;;;;;40.50;35.33;;;;;;;;;;5074296;28;20966;-84
2020/12/23 08:15:15;;;;;;;39.67;35.40;;;;;;;;;;5074845;28;20424;-84
2020/12/23 08:17:42;;;;;;;53.00;39.03;;;;;;;;;;5074621;28;20459;-85
2020/12/23 08:20:10;;;;;;;46.97;37.87;;;;;;;;;;5074618;28;20419;-84
2020/12/23 08:22:37;;;;;;;48.07;37.00;;;;;;;;;;5074184;28;20466;-83
2020/12/23 08:25:09;;;;;;;40.27;35.13;;;;;;;;;;5075278;28;20438;-83
2020/12/23 08:27:37;;;;;;;48.73;36.50;;;;;;;;;;5073451;28;20461;-77
2020/12/23 08:30:05;;;;;;;51.73;41.43;;;;;;;;;;5073999;28;20437;-78
2020/12/23 08:32:35;;;;;;;48.67;36.20;;;;;;;;;;5073342;28;20415;-78
2020/12/23 08:35:03;;;;;;;45.60;38.70;;;;;;;;;;5073437;28;20442;-78
2020/12/23 08:37:30;;;;;;;40.03;35.73;;;;;;;;;;5073687;28;20777;-78
2020/12/23 08:39:57;;;;;;;50.70;39.30;;;;;;;;;;5073879;28;20441;-80
2020/12/23 08:42:26;;;;;;;42.47;38.07;;;;;;;;;;5073749;28;20415;-79
2020/12/23 08:44:54;;;;;;;39.63;35.50;;;;;;;;;;5073848;28;20911;-79
2020/12/23 08:47:26;;;;;;;55.23;38.00;;;;;;;;;;5073640;28;20454;-79
2020/12/23 08:49:54;;;;;;;38.23;34.17;;;;;;;;;;5073311;28;20441;-79
2020/12/23 08:52:21;;;;;;;42.50;36.53;;;;;;;;;;5073333;28;20814;-79
2020/12/23 08:54:49;;;;;;;48.80;36.50;;;;;;;;;;5073516;28;20475;-79
2020/12/23 08:57:16;;;;;;;40.50;36.60;;;;;;;;;;5073750;28;20433;-79
2020/12/23 08:59:45;;;;;;;39.53;35.57;;;;;;;;;;5073926;28;20425;-81
2020/12/23 09:02:15;;;;;;;43.20;36.40;;;;;;;;;;5073336;28;20440;-80
2020/12/23 09:04:42;;;;;;;39.27;35.03;;;;;;;;;;5073247;28;20452;-84
2020/12/23 09:07:09;;;;;;;38.30;34.60;;;;;;;;;;5074295;28;20423;-91
2020/12/23 09:09:36;;;;;;;37.90;34.40;;;;;;;;;;5074266;28;20461;-84
2020/12/23 09:12:04;;;;;;;37.87;33.83;;;;;;;;;;5073798;28;20408;-79
2020/12/23 09:14:32;;;;;;;36.27;32.57;;;;;;;;;;5073245;28;20566;-79
2020/12/23 09:17:01;;;;;;;37.00;33.20;;;;;;;;;;5073412;28;20449;-79
2020/12/23 09:19:47;;;;;;;41.93;33.90;;;;;;;;;;5073429;28;20420;-86
2020/12/23 09:22:23;;;;;;;35.80;32.10;;;;;;;;;;5073645;28;20897;-79
2020/12/23 09:24:50;;;;;;;34.13;30.73;;;;;;;;;;5073205;28;20419;-81
2020/12/23 09:27:20;;;;;;;38.17;34.37;;;;;;;;;;5073474;28;20432;-77
2020/12/23 09:29:47;;;;;;;37.60;34.00;;;;;;;;;;5072917;28;20408;-77
2020/12/23 09:32:15;;;;;;;38.30;34.80;;;;;;;;;;5072832;28;20782;-78
2020/12/23 09:34:42;;;;;;;36.73;33.03;;;;;;;;;;5075401;28;20859;-78
2020/12/23 09:37:09;;;;;;;36.90;32.97;;;;;;;;;;5059471;28;20820;-79
2020/12/23 09:39:37;;;;;;;37.40;33.70;;;;;;;;;;5077073;28;20404;-78
2020/12/23 09:42:05;;;;;;;34.53;31.20;;;;;;;;;;5076877;28;20763;-78
2020/12/23 09:44:32;;;;;;;35.10;32.10;;;;;;;;;;5076907;28;20400;-78
2020/12/23 09:46:59;;;;;;;34.77;31.87;;;;;;;;;;5076673;28;20429;-78
2020/12/23 09:49:27;;;;;;;35.10;32.10;;;;;;;;;;5076710;28;20423;-78
2020/12/23 09:51:54;;;;;;;34.43;31.70;;;;;;;;;;5076813;28;20786;-79
2020/12/23 09:54:21;;;;;;;35.97;32.83;;;;;;;;;;5076305;28;20452;-78
2020/12/23 09:56:48;;;;;;;35.80;32.73;;;;;;;;;;5058646;28;20901;-78
2020/12/23 09:59:15;;;;;;;37.87;34.43;;;;;;;;;;5076525;28;20438;-79
2020/12/23 10:01:42;;;;;;;34.50;31.60;;;;;;;;;;5074993;28;20451;-76
2020/12/23 10:04:09;;;;;;;38.53;35.10;;;;;;;;;;5075742;28;21126;-77
2020/12/23 10:06:37;;;;;;;35.20;32.30;;;;;;;;;;5076467;28;20427;-77
2020/12/23 10:09:05;;;;;;;37.77;34.67;;;;;;;;;;5076254;28;20420;-78
2020/12/23 10:11:31;;;;;;;36.40;33.30;;;;;;;;;;5075584;28;20488;-78
2020/12/23 10:14:01;;;;;;;34.70;32.03;;;;;;;;;;5074513;28;20543;-82
2020/12/23 10:16:32;;;;;;;34.43;31.60;;;;;;;;;;5076158;28;20436;-78
2020/12/23 10:18:59;;;;;;;34.33;31.60;;;;;;;;;;5075920;28;20464;-79
2020/12/23 10:21:26;;;;;;;34.47;31.37;;;;;;;;;;5071923;28;20445;-81
2020/12/23 10:23:55;;;;;;;32.50;29.90;;;;;;;;;;5076137;28;20915;-78
2020/12/23 10:26:22;;;;;;;35.70;32.60;;;;;;;;;;5075639;28;20423;-79
2020/12/23 10:28:49;;;;;;;33.00;30.33;;;;;;;;;;5075246;28;20434;-84
2020/12/23 10:31:16;;;;;;;35.93;32.90;;;;;;;;;;5042199;28;20450;-82
2020/12/23 10:33:43;;;;;;;36.43;33.60;;;;;;;;;;5075641;28;20484;-82
2020/12/23 10:36:14;;;;;;;34.70;32.00;;;;;;;;;;5076112;28;20424;-82
2020/12/23 10:38:42;;;;;;;31.17;28.87;;;;;;;;;;5076147;28;20424;-82
2020/12/23 10:41:09;;;;;;;32.70;30.10;;;;;;;;;;5076281;28;20442;-82
2020/12/23 10:43:36;;;;;;;31.97;29.57;;;;;;;;;;5076809;28;20408;-82
2020/12/23 10:46:08;;;;;;;30.03;27.77;;;;;;;;;;5074870;28;20412;-82
2020/12/23 10:48:35;;;;;;;33.20;30.57;;;;;;;;;;5076398;28;20420;-83
2020/12/23 10:51:03;;;;;;;29.70;27.50;;;;;;;;;;5056750;28;20409;-78
2020/12/23 10:53:31;;;;;;;31.00;28.70;;;;;;;;;;5075908;28;20463;-81
2020/12/23 10:55:58;;;;;;;31.17;29.17;;;;;;;;;;5075306;28;20416;-82
2020/12/23 10:58:25;;;;;;;29.73;27.53;;;;;;;;;;5058288;28;20424;-81
2020/12/23 11:00:54;;;;;;;29.13;27.17;;;;;;;;;;5057726;28;20444;-82
2020/12/23 11:03:22;;;;;;;28.30;26.50;;;;;;;;;;5057492;28;20952;-81
2020/12/23 11:05:49;;;;;;;30.27;28.17;;;;;;;;;;5075199;28;20516;-81
2020/12/23 11:08:16;;;;;;;32.03;29.63;;;;;;;;;;5057596;28;20917;-78
2020/12/23 11:10:42;;;;;;;29.20;27.17;;;;;;;;;;5075478;28;20426;-79
2020/12/23 11:13:09;;;;;;;28.70;26.80;;;;;;;;;;5075068;28;20718;-82
2020/12/23 11:15:37;;;;;;;28.77;26.70;;;;;;;;;;5075255;28;20437;-82
2020/12/23 11:18:04;;;;;;;28.43;26.40;;;;;;;;;;5076034;28;20411;-80
2020/12/23 11:20:31;;;;;;;28.33;26.43;;;;;;;;;;5075156;28;20424;-79
2020/12/23 11:22:58;;;;;;;27.70;26.00;;;;;;;;;;5057128;28;20536;-81
2020/12/23 11:25:25;;;;;;;28.10;26.10;;;;;;;;;;5075224;28;20444;-82
2020/12/23 11:27:52;;;;;;;28.03;26.17;;;;;;;;;;5074812;28;20434;-78
2020/12/23 11:30:18;;;;;;;27.13;25.37;;;;;;;;;;5074525;28;20411;-78
2020/12/23 11:32:46;;;;;;;27.57;25.67;;;;;;;;;;5074328;28;20851;-84
2020/12/23 11:35:13;;;;;;;27.60;25.80;;;;;;;;;;5074244;28;20804;-78
2020/12/23 11:37:40;;;;;;;27.40;25.70;;;;;;;;;;5074301;28;20791;-81
2020/12/23 11:40:07;;;;;;;27.63;26.00;;;;;;;;;;5074409;28;20449;-80
2020/12/23 11:42:41;;;;;;;26.27;24.67;;;;;;;;;;5074461;28;20783;-81
2020/12/23 11:45:08;;;;;;;26.40;24.80;;;;;;;;;;5058473;28;20472;-82
2020/12/23 11:47:35;;;;;;;27.87;26.17;;;;;;;;;;5074898;28;20473;-81
2020/12/23 11:50:03;;;;;;;28.23;26.33;;;;;;;;;;5074863;28;20452;-81
2020/12/23 11:52:30;;;;;;;27.43;25.73;;;;;;;;;;5056837;28;20474;-81
2020/12/23 11:54:57;;;;;;;25.80;24.37;;;;;;;;;;5074728;28;20482;-80
2020/12/23 11:57:24;;;;;;;27.67;26.07;;;;;;;;;;5074405;28;20405;-81
2020/12/23 11:59:51;;;;;;;28.60;26.70;;;;;;;;;;5073943;28;20400;-80
2020/12/23 12:02:18;;;;;;;28.10;26.50;;;;;;;;;;5056461;28;20419;-80
2020/12/23 12:04:45;;;;;;;26.00;24.50;;;;;;;;;;5074105;28;20519;-80
2020/12/23 12:07:13;;;;;;;26.50;25.03;;;;;;;;;;5056623;28;20542;-80
2020/12/23 12:09:40;;;;;;;28.10;26.13;;;;;;;;;;5074206;28;20917;-80
2020/12/23 12:12:07;;;;;;;26.00;24.13;;;;;;;;;;5074151;28;20437;-80
2020/12/23 12:14:33;;;;;;;27.33;25.93;;;;;;;;;;5074417;28;20474;-80
2020/12/23 12:17:00;;;;;;;26.57;25.17;;;;;;;;;;5074307;28;20851;-80
2020/12/23 12:19:27;;;;;;;26.87;25.47;;;;;;;;;;5074061;28;20816;-79
2020/12/23 12:21:55;;;;;;;27.73;26.10;;;;;;;;;;5074128;28;20799;-79
2020/12/23 12:24:22;;;;;;;25.97;24.40;;;;;;;;;;5074094;28;20424;-77
2020/12/23 12:26:49;;;;;;;26.90;25.20;;;;;;;;;;5074179;28;20405;-78
2020/12/23 12:29:16;;;;;;;25.70;24.10;;;;;;;;;;5073625;28;20429;-78
2020/12/23 12:31:45;;;;;;;25.60;24.10;;;;;;;;;;5073793;28;20482;-79
2020/12/23 12:34:12;;;;;;;24.63;23.33;;;;;;;;;;5073901;28;20483;-79
2020/12/23 12:36:39;;;;;;;25.13;23.73;;;;;;;;;;5074017;28;20438;-79
2020/12/23 12:39:06;;;;;;;25.73;24.23;;;;;;;;;;5073858;28;20400;-79
2020/12/23 12:41:34;;;;;;;25.63;24.00;;;;;;;;;;5073591;28;20430;-79
2020/12/23 12:44:01;;;;;;;26.43;24.90;;;;;;;;;;5073816;28;20766;-79
2020/12/23 12:46:28;;;;;;;26.90;25.27;;;;;;;;;;5073818;28;20412;-79
2020/12/23 12:48:55;;;;;;;27.20;25.70;;;;;;;;;;5073701;28;20446;-79
2020/12/23 12:51:25;;;;;;;29.40;27.60;;;;;;;;;;5073444;28;20464;-79
2020/12/23 12:53:52;;;;;;;30.17;28.03;;;;;;;;;;5073426;28;20488;-79
2020/12/23 12:56:22;;;;;;;28.80;26.97;;;;;;;;;;5073687;28;20412;-80
2020/12/23 12:58:50;;;;;;;29.80;27.77;;;;;;;;;;5055576;28;20909;-79
2020/12/23 13:01:17;;;;;;;28.87;27.13;;;;;;;;;;5073049;28;20784;-79
2020/12/23 13:03:44;;;;;;;27.97;26.37;;;;;;;;;;5073102;28;20535;-79
2020/12/23 13:06:11;;;;;;;29.93;27.83;;;;;;;;;;5073335;28;20478;-82
2020/12/23 13:08:38;;;;;;;29.40;27.50;;;;;;;;;;5073337;28;20412;-79
2020/12/23 13:11:05;;;;;;;28.73;27.00;;;;;;;;;;5076731;28;20809;-78
2020/12/23 13:13:32;;;;;;;29.07;27.30;;;;;;;;;;5059295;28;20834;-84
2020/12/23 13:16:00;;;;;;;28.00;26.20;;;;;;;;;;5076684;28;20498;-78
2020/12/23 13:18:26;;;;;;;28.47;26.47;;;;;;;;;;5076755;28;20404;-78
2020/12/23 13:20:53;;;;;;;28.50;26.80;;;;;;;;;;5076683;28;20408;-79
2020/12/23 13:23:20;;;;;;;28.83;27.10;;;;;;;;;;5076764;28;20912;-78
2020/12/23 13:25:47;;;;;;;28.23;26.43;;;;;;;;;;5077086;28;20487;-79
2020/12/23 13:28:14;;;;;;;27.43;25.63;;;;;;;;;;5059383;28;20441;-79
2020/12/23 13:30:41;;;;;;;27.90;26.20;;;;;;;;;;5076815;28;20511;-78
2020/12/23 13:33:09;;;;;;;32.63;30.03;;;;;;;;;;5076477;28;20946;-78
2020/12/23 13:35:36;;;;;;;37.83;35.13;;;;;;;;;;5077659;28;20441;-79
2020/12/23 13:38:02;;;;;;;33.20;30.87;;;;;;;;;;5076888;28;20430;-79
2020/12/23 13:40:29;;;;;;;37.67;34.60;;;;;;;;;;5076954;28;20451;-81
2020/12/23 13:42:59;;;;;;;39.90;36.97;;;;;;;;;;5077123;28;20474;-81
2020/12/23 13:45:26;;;;;;;30.50;28.60;;;;;;;;;;5076425;28;20761;-79
2020/12/23 13:47:53;;;;;;;31.30;29.13;;;;;;;;;;5059256;28;20437;-78
2020/12/23 13:50:21;;;;;;;33.30;31.20;;;;;;;;;;5076519;28;20404;-79
2020/12/23 13:52:48;;;;;;;33.60;31.50;;;;;;;;;;5076180;28;20872;-81
2020/12/23 13:55:15;;;;;;;32.03;30.03;;;;;;;;;;5076849;28;20516;-80
2020/12/23 13:57:42;;;;;;;32.47;30.47;;;;;;;;;;5076594;28;20409;-82
2020/12/23 14:00:09;;;;;;;33.70;31.50;;;;;;;;;;5076648;28;20469;-82
2020/12/23 14:02:36;;;;;;;32.93;30.70;;;;;;;;;;5076565;28;20423;-81
2020/12/23 14:05:04;;;;;;;34.33;31.90;;;;;;;;;;5076176;28;20466;-79
2020/12/23 14:07:32;;;;;;;30.70;28.77;;;;;;;;;;5076144;28;20422;-80
2020/12/23 14:09:59;;;;;;;29.90;27.97;;;;;;;;;;5076149;28;20777;-79
2020/12/23 14:12:26;;;;;;;28.00;26.10;;;;;;;;;;5076083;28;20411;-81
2020/12/23 14:14:53;;;;;;;29.30;27.37;;;;;;;;;;5076685;28;20492;-75
2020/12/23 14:17:20;;;;;;;26.60;25.00;;;;;;;;;;5076424;28;20434;-81
2020/12/23 14:19:47;;;;;;;28.50;26.77;;;;;;;;;;5077013;28;20417;-81